PZA weather

Palizada Airport
Palizada, Campeche, Mexico

Public forecast

Using degrees Celsius for public forecast. Weather courtesy of forecast.io.

Closest aviation weather report (METAR) to Palizada Airport

Report is more than 6 hours old.

Closest report is Ciudad del Carmen International Airport, 28.5 nm (52.8 km) NE. Retrieved 2019/12/11 00:51 UTC (7 hours ago):

MMCE 110051Z 12010KT 7SM SKC 29/22 A2989

Closest aviation forecast (TAF) to Palizada Airport

Closest forecast is Ciudad del Carmen International Airport, 28.5 nm (52.8 km) NE. Retrieved 2019/12/11 06:42 UTC (1 hour ago):

TAF MMCE 110531Z 1106/1206 12005KT 6SM HZ SKC FM111000 08008KT 6SM HZ BKN015 TEMPO 1112/1116 5SM -RA BKN010 FM111800 03010KT 6SM HZ BKN020 BKN050 TEMPO 1118/1122 4SM -RA FM120300 33015KT 6SM HZ BKN015 BKN050